sensor_id;sensor_type;location;lat;lon;timestamp;P1;durP1;ratioP1;P2;durP2;ratioP2
68680;SDS011;55836;49.858;6.756;2023-03-04T00:01:06;96.70;;;38.53;;
68680;SDS011;55836;49.858;6.756;2023-03-04T00:03:32;107.83;;;39.97;;
68680;SDS011;55836;49.858;6.756;2023-03-04T00:05:58;97.97;;;40.97;;
68680;SDS011;55836;49.858;6.756;2023-03-04T00:08:24;97.47;;;38.60;;
68680;SDS011;55836;49.858;6.756;2023-03-04T00:10:50;93.90;;;38.00;;
68680;SDS011;55836;49.858;6.756;2023-03-04T00:13:16;98.33;;;39.27;;
68680;SDS011;55836;49.858;6.756;2023-03-04T00:15:44;90.17;;;38.10;;
68680;SDS011;55836;49.858;6.756;2023-03-04T00:18:10;94.57;;;35.07;;
68680;SDS011;55836;49.858;6.756;2023-03-04T00:20:36;91.87;;;34.53;;
68680;SDS011;55836;49.858;6.756;2023-03-04T00:23:02;91.27;;;34.83;;
68680;SDS011;55836;49.858;6.756;2023-03-04T00:25:28;94.27;;;36.03;;
68680;SDS011;55836;49.858;6.756;2023-03-04T00:27:54;93.40;;;35.93;;
68680;SDS011;55836;49.858;6.756;2023-03-04T00:30:22;87.23;;;35.23;;
68680;SDS011;55836;49.858;6.756;2023-03-04T00:32:48;94.00;;;36.13;;
68680;SDS011;55836;49.858;6.756;2023-03-04T00:35:14;91.80;;;33.70;;
68680;SDS011;55836;49.858;6.756;2023-03-04T00:37:40;87.40;;;36.13;;
68680;SDS011;55836;49.858;6.756;2023-03-04T00:40:06;95.40;;;35.00;;
68680;SDS011;55836;49.858;6.756;2023-03-04T00:42:33;85.63;;;35.97;;
68680;SDS011;55836;49.858;6.756;2023-03-04T00:44:59;92.37;;;36.03;;
68680;SDS011;55836;49.858;6.756;2023-03-04T00:47:25;101.77;;;37.47;;
68680;SDS011;55836;49.858;6.756;2023-03-04T00:49:51;94.60;;;38.50;;
68680;SDS011;55836;49.858;6.756;2023-03-04T00:52:17;98.33;;;36.13;;
68680;SDS011;55836;49.858;6.756;2023-03-04T00:54:43;98.07;;;35.23;;
68680;SDS011;55836;49.858;6.756;2023-03-04T00:57:09;95.20;;;36.13;;
68680;SDS011;55836;49.858;6.756;2023-03-04T00:59:35;102.63;;;37.17;;
68680;SDS011;55836;49.858;6.756;2023-03-04T01:02:01;96.70;;;36.40;;
68680;SDS011;55836;49.858;6.756;2023-03-04T01:04:27;92.93;;;33.17;;
68680;SDS011;55836;49.858;6.756;2023-03-04T01:06:53;98.80;;;37.53;;
68680;SDS011;55836;49.858;6.756;2023-03-04T01:09:19;96.90;;;35.87;;
68680;SDS011;55836;49.858;6.756;2023-03-04T01:11:45;87.83;;;34.57;;
68680;SDS011;55836;49.858;6.756;2023-03-04T01:14:11;90.83;;;34.70;;
68680;SDS011;55836;49.858;6.756;2023-03-04T01:16:37;96.80;;;35.00;;
68680;SDS011;55836;49.858;6.756;2023-03-04T01:19:03;97.00;;;36.63;;
68680;SDS011;55836;49.858;6.756;2023-03-04T01:21:29;88.07;;;34.43;;
68680;SDS011;55836;49.858;6.756;2023-03-04T01:23:55;98.00;;;36.30;;
68680;SDS011;55836;49.858;6.756;2023-03-04T01:26:21;95.43;;;34.03;;
68680;SDS011;55836;49.858;6.756;2023-03-04T01:28:47;88.27;;;35.23;;
68680;SDS011;55836;49.858;6.756;2023-03-04T01:31:13;82.87;;;31.67;;
68680;SDS011;55836;49.858;6.756;2023-03-04T01:33:39;98.20;;;36.30;;
68680;SDS011;55836;49.858;6.756;2023-03-04T01:36:05;96.20;;;35.70;;
68680;SDS011;55836;49.858;6.756;2023-03-04T01:38:31;90.63;;;35.30;;
68680;SDS011;55836;49.858;6.756;2023-03-04T01:40:57;90.40;;;34.57;;
68680;SDS011;55836;49.858;6.756;2023-03-04T01:43:24;84.93;;;34.43;;
68680;SDS011;55836;49.858;6.756;2023-03-04T01:45:51;90.50;;;32.10;;
68680;SDS011;55836;49.858;6.756;2023-03-04T01:48:21;83.03;;;33.43;;
68680;SDS011;55836;49.858;6.756;2023-03-04T01:50:49;91.50;;;35.63;;
68680;SDS011;55836;49.858;6.756;2023-03-04T01:53:23;92.93;;;33.47;;
68680;SDS011;55836;49.858;6.756;2023-03-04T01:55:51;98.40;;;37.97;;
68680;SDS011;55836;49.858;6.756;2023-03-04T01:58:17;91.57;;;35.67;;
68680;SDS011;55836;49.858;6.756;2023-03-04T02:00:43;97.23;;;37.80;;
68680;SDS011;55836;49.858;6.756;2023-03-04T02:03:10;87.47;;;34.07;;
68680;SDS011;55836;49.858;6.756;2023-03-04T02:05:38;102.77;;;38.00;;
68680;SDS011;55836;49.858;6.756;2023-03-04T02:08:06;88.97;;;33.73;;
68680;SDS011;55836;49.858;6.756;2023-03-04T02:10:32;94.30;;;33.80;;
68680;SDS011;55836;49.858;6.756;2023-03-04T02:12:59;98.27;;;35.57;;
68680;SDS011;55836;49.858;6.756;2023-03-04T02:15:25;89.83;;;33.90;;
68680;SDS011;55836;49.858;6.756;2023-03-04T02:17:52;92.17;;;34.23;;
68680;SDS011;55836;49.858;6.756;2023-03-04T02:23:30;87.83;;;34.57;;
68680;SDS011;55836;49.858;6.756;2023-03-04T02:25:38;84.23;;;33.53;;
68680;SDS011;55836;49.858;6.756;2023-03-04T02:28:06;82.60;;;33.47;;
68680;SDS011;55836;49.858;6.756;2023-03-04T02:30:32;88.73;;;33.90;;
68680;SDS011;55836;49.858;6.756;2023-03-04T02:32:59;85.70;;;33.87;;
68680;SDS011;55836;49.858;6.756;2023-03-04T02:35:25;105.27;;;35.77;;
68680;SDS011;55836;49.858;6.756;2023-03-04T02:37:51;91.50;;;36.87;;
68680;SDS011;55836;49.858;6.756;2023-03-04T02:40:21;91.30;;;34.27;;
68680;SDS011;55836;49.858;6.756;2023-03-04T02:42:49;88.40;;;35.93;;
68680;SDS011;55836;49.858;6.756;2023-03-04T02:45:33;93.20;;;34.53;;
68680;SDS011;55836;49.858;6.756;2023-03-04T02:48:00;91.03;;;36.17;;
68680;SDS011;55836;49.858;6.756;2023-03-04T02:50:27;99.30;;;33.73;;
68680;SDS011;55836;49.858;6.756;2023-03-04T02:52:54;90.13;;;35.17;;
68680;SDS011;55836;49.858;6.756;2023-03-04T02:55:20;94.67;;;36.13;;
68680;SDS011;55836;49.858;6.756;2023-03-04T02:57:46;96.43;;;36.83;;
68680;SDS011;55836;49.858;6.756;2023-03-04T03:00:12;88.80;;;34.63;;
68680;SDS011;55836;49.858;6.756;2023-03-04T03:02:38;89.60;;;33.63;;
68680;SDS011;55836;49.858;6.756;2023-03-04T03:05:04;92.27;;;35.57;;
68680;SDS011;55836;49.858;6.756;2023-03-04T03:07:30;96.67;;;36.97;;
68680;SDS011;55836;49.858;6.756;2023-03-04T03:09:58;82.27;;;33.60;;
68680;SDS011;55836;49.858;6.756;2023-03-04T03:12:24;95.53;;;34.73;;
68680;SDS011;55836;49.858;6.756;2023-03-04T03:14:50;91.40;;;35.13;;
68680;SDS011;55836;49.858;6.756;2023-03-04T03:17:16;88.07;;;36.07;;
68680;SDS011;55836;49.858;6.756;2023-03-04T03:19:42;94.40;;;36.73;;
68680;SDS011;55836;49.858;6.756;2023-03-04T03:22:08;92.57;;;34.87;;
68680;SDS011;55836;49.858;6.756;2023-03-04T03:24:34;92.53;;;35.37;;
68680;SDS011;55836;49.858;6.756;2023-03-04T03:27:00;94.23;;;35.37;;
68680;SDS011;55836;49.858;6.756;2023-03-04T03:29:26;94.67;;;34.97;;
68680;SDS011;55836;49.858;6.756;2023-03-04T03:31:52;91.60;;;37.03;;
68680;SDS011;55836;49.858;6.756;2023-03-04T03:34:20;94.17;;;36.40;;
68680;SDS011;55836;49.858;6.756;2023-03-04T03:36:46;91.17;;;37.17;;
68680;SDS011;55836;49.858;6.756;2023-03-04T03:39:12;106.90;;;36.30;;
68680;SDS011;55836;49.858;6.756;2023-03-04T03:41:39;95.00;;;34.87;;
68680;SDS011;55836;49.858;6.756;2023-03-04T03:44:05;92.50;;;36.03;;
68680;SDS011;55836;49.858;6.756;2023-03-04T03:46:32;91.00;;;35.00;;
68680;SDS011;55836;49.858;6.756;2023-03-04T03:48:59;92.30;;;36.47;;
68680;SDS011;55836;49.858;6.756;2023-03-04T03:51:25;91.00;;;34.97;;
68680;SDS011;55836;49.858;6.756;2023-03-04T03:53:51;90.97;;;37.13;;
68680;SDS011;55836;49.858;6.756;2023-03-04T03:56:17;92.03;;;37.03;;
68680;SDS011;55836;49.858;6.756;2023-03-04T03:58:43;95.47;;;37.70;;
68680;SDS011;55836;49.858;6.756;2023-03-04T04:01:09;88.17;;;33.93;;
68680;SDS011;55836;49.858;6.756;2023-03-04T04:03:35;81.23;;;35.03;;
68680;SDS011;55836;49.858;6.756;2023-03-04T04:06:01;84.10;;;34.80;;
68680;SDS011;55836;49.858;6.756;2023-03-04T04:08:27;92.50;;;35.57;;
68680;SDS011;55836;49.858;6.756;2023-03-04T04:10:53;97.03;;;36.63;;
68680;SDS011;55836;49.858;6.756;2023-03-04T04:13:19;98.93;;;38.17;;
68680;SDS011;55836;49.858;6.756;2023-03-04T04:15:45;100.73;;;38.47;;
68680;SDS011;55836;49.858;6.756;2023-03-04T04:18:11;100.07;;;38.10;;
68680;SDS011;55836;49.858;6.756;2023-03-04T04:20:37;99.63;;;37.63;;
68680;SDS011;55836;49.858;6.756;2023-03-04T04:23:03;98.23;;;36.53;;
68680;SDS011;55836;49.858;6.756;2023-03-04T04:25:30;90.07;;;34.10;;
68680;SDS011;55836;49.858;6.756;2023-03-04T04:27:56;85.87;;;35.97;;
68680;SDS011;55836;49.858;6.756;2023-03-04T04:30:22;99.73;;;37.57;;
68680;SDS011;55836;49.858;6.756;2023-03-04T04:32:48;103.43;;;38.43;;
68680;SDS011;55836;49.858;6.756;2023-03-04T04:35:14;98.07;;;35.47;;
68680;SDS011;55836;49.858;6.756;2023-03-04T04:37:40;95.37;;;34.03;;
68680;SDS011;55836;49.858;6.756;2023-03-04T04:40:06;92.00;;;37.77;;
68680;SDS011;55836;49.858;6.756;2023-03-04T04:42:32;95.70;;;36.77;;
68680;SDS011;55836;49.858;6.756;2023-03-04T04:44:58;99.77;;;37.10;;
68680;SDS011;55836;49.858;6.756;2023-03-04T04:47:24;96.93;;;38.70;;
68680;SDS011;55836;49.858;6.756;2023-03-04T04:49:50;91.93;;;35.20;;
68680;SDS011;55836;49.858;6.756;2023-03-04T04:52:16;91.93;;;35.63;;
68680;SDS011;55836;49.858;6.756;2023-03-04T04:54:42;91.10;;;37.60;;
68680;SDS011;55836;49.858;6.756;2023-03-04T04:57:08;98.30;;;37.73;;
68680;SDS011;55836;49.858;6.756;2023-03-04T04:59:34;102.80;;;39.60;;
68680;SDS011;55836;49.858;6.756;2023-03-04T05:02:01;86.13;;;34.70;;
68680;SDS011;55836;49.858;6.756;2023-03-04T05:04:27;92.77;;;36.77;;
68680;SDS011;55836;49.858;6.756;2023-03-04T05:06:53;98.73;;;37.90;;
68680;SDS011;55836;49.858;6.756;2023-03-04T05:09:19;93.20;;;36.50;;
68680;SDS011;55836;49.858;6.756;2023-03-04T05:11:46;99.10;;;38.47;;
68680;SDS011;55836;49.858;6.756;2023-03-04T05:14:13;90.83;;;36.17;;
68680;SDS011;55836;49.858;6.756;2023-03-04T05:16:39;91.43;;;37.80;;
68680;SDS011;55836;49.858;6.756;2023-03-04T05:19:05;90.43;;;37.40;;
68680;SDS011;55836;49.858;6.756;2023-03-04T05:21:31;88.87;;;37.23;;
68680;SDS011;55836;49.858;6.756;2023-03-04T05:23:57;93.33;;;38.60;;
68680;SDS011;55836;49.858;6.756;2023-03-04T05:26:23;98.43;;;38.60;;
68680;SDS011;55836;49.858;6.756;2023-03-04T05:28:49;96.37;;;39.40;;
68680;SDS011;55836;49.858;6.756;2023-03-04T05:31:15;100.77;;;42.67;;
68680;SDS011;55836;49.858;6.756;2023-03-04T05:33:41;98.60;;;37.60;;
68680;SDS011;55836;49.858;6.756;2023-03-04T05:36:08;101.70;;;37.27;;
68680;SDS011;55836;49.858;6.756;2023-03-04T05:38:34;92.00;;;35.50;;
68680;SDS011;55836;49.858;6.756;2023-03-04T05:41:02;91.03;;;34.67;;
68680;SDS011;55836;49.858;6.756;2023-03-04T05:43:28;100.47;;;37.73;;
68680;SDS011;55836;49.858;6.756;2023-03-04T05:45:54;93.87;;;37.40;;
68680;SDS011;55836;49.858;6.756;2023-03-04T05:48:20;97.17;;;36.50;;
68680;SDS011;55836;49.858;6.756;2023-03-04T05:50:51;94.13;;;38.20;;
68680;SDS011;55836;49.858;6.756;2023-03-04T05:53:18;105.37;;;38.17;;
68680;SDS011;55836;49.858;6.756;2023-03-04T05:55:47;90.03;;;37.27;;
68680;SDS011;55836;49.858;6.756;2023-03-04T05:58:13;89.00;;;36.90;;
68680;SDS011;55836;49.858;6.756;2023-03-04T06:00:39;94.93;;;39.50;;
68680;SDS011;55836;49.858;6.756;2023-03-04T06:03:05;98.70;;;40.47;;
68680;SDS011;55836;49.858;6.756;2023-03-04T06:05:31;94.33;;;38.63;;
68680;SDS011;55836;49.858;6.756;2023-03-04T06:07:57;93.17;;;37.77;;
68680;SDS011;55836;49.858;6.756;2023-03-04T06:10:23;100.97;;;37.07;;
68680;SDS011;55836;49.858;6.756;2023-03-04T06:12:49;98.87;;;36.80;;
68680;SDS011;55836;49.858;6.756;2023-03-04T06:15:15;94.63;;;38.20;;
68680;SDS011;55836;49.858;6.756;2023-03-04T06:17:41;99.77;;;38.93;;
68680;SDS011;55836;49.858;6.756;2023-03-04T06:20:09;93.20;;;37.07;;
68680;SDS011;55836;49.858;6.756;2023-03-04T06:22:35;100.30;;;37.47;;
68680;SDS011;55836;49.858;6.756;2023-03-04T06:25:01;104.47;;;37.67;;
68680;SDS011;55836;49.858;6.756;2023-03-04T06:27:27;104.80;;;38.47;;
68680;SDS011;55836;49.858;6.756;2023-03-04T06:29:53;93.40;;;37.77;;
68680;SDS011;55836;49.858;6.756;2023-03-04T06:32:20;92.07;;;36.27;;
68680;SDS011;55836;49.858;6.756;2023-03-04T06:34:46;98.10;;;38.03;;
68680;SDS011;55836;49.858;6.756;2023-03-04T06:37:12;97.80;;;36.93;;
68680;SDS011;55836;49.858;6.756;2023-03-04T06:39:38;101.47;;;38.37;;
68680;SDS011;55836;49.858;6.756;2023-03-04T06:42:04;95.43;;;35.63;;
68680;SDS011;55836;49.858;6.756;2023-03-04T06:44:30;105.67;;;38.33;;
68680;SDS011;55836;49.858;6.756;2023-03-04T06:46:56;105.07;;;39.67;;
68680;SDS011;55836;49.858;6.756;2023-03-04T06:49:22;104.87;;;38.97;;
68680;SDS011;55836;49.858;6.756;2023-03-04T06:51:48;93.13;;;37.53;;
68680;SDS011;55836;49.858;6.756;2023-03-04T06:54:14;107.23;;;40.03;;
68680;SDS011;55836;49.858;6.756;2023-03-04T06:56:40;105.93;;;39.90;;
68680;SDS011;55836;49.858;6.756;2023-03-04T06:59:06;103.03;;;37.10;;
68680;SDS011;55836;49.858;6.756;2023-03-04T07:01:32;109.17;;;41.50;;
68680;SDS011;55836;49.858;6.756;2023-03-04T07:03:59;97.00;;;41.10;;
68680;SDS011;55836;49.858;6.756;2023-03-04T07:06:26;100.30;;;40.40;;
68680;SDS011;55836;49.858;6.756;2023-03-04T07:08:53;103.93;;;42.07;;
68680;SDS011;55836;49.858;6.756;2023-03-04T07:11:19;108.53;;;41.63;;
68680;SDS011;55836;49.858;6.756;2023-03-04T07:13:46;115.77;;;42.93;;
68680;SDS011;55836;49.858;6.756;2023-03-04T07:16:13;110.77;;;43.00;;
68680;SDS011;55836;49.858;6.756;2023-03-04T07:18:39;106.37;;;42.00;;
68680;SDS011;55836;49.858;6.756;2023-03-04T07:21:06;111.97;;;43.33;;
68680;SDS011;55836;49.858;6.756;2023-03-04T07:23:32;117.87;;;45.77;;
68680;SDS011;55836;49.858;6.756;2023-03-04T07:25:58;109.17;;;43.37;;
68680;SDS011;55836;49.858;6.756;2023-03-04T07:28:25;97.73;;;38.53;;
68680;SDS011;55836;49.858;6.756;2023-03-04T07:30:51;95.77;;;39.53;;
68680;SDS011;55836;49.858;6.756;2023-03-04T07:33:17;105.80;;;42.33;;
68680;SDS011;55836;49.858;6.756;2023-03-04T07:35:43;93.63;;;37.80;;
68680;SDS011;55836;49.858;6.756;2023-03-04T07:38:09;104.87;;;40.93;;
68680;SDS011;55836;49.858;6.756;2023-03-04T07:40:35;97.53;;;38.47;;
68680;SDS011;55836;49.858;6.756;2023-03-04T07:43:01;100.57;;;37.37;;
68680;SDS011;55836;49.858;6.756;2023-03-04T07:45:27;98.07;;;38.90;;
68680;SDS011;55836;49.858;6.756;2023-03-04T07:47:53;100.13;;;40.00;;
68680;SDS011;55836;49.858;6.756;2023-03-04T07:50:19;104.40;;;43.00;;
68680;SDS011;55836;49.858;6.756;2023-03-04T07:52:46;105.93;;;39.70;;
68680;SDS011;55836;49.858;6.756;2023-03-04T07:55:15;96.17;;;37.03;;
68680;SDS011;55836;49.858;6.756;2023-03-04T07:57:41;87.60;;;35.63;;
68680;SDS011;55836;49.858;6.756;2023-03-04T08:00:08;100.10;;;37.90;;
68680;SDS011;55836;49.858;6.756;2023-03-04T08:02:34;95.60;;;38.50;;
68680;SDS011;55836;49.858;6.756;2023-03-04T08:05:01;98.43;;;36.43;;
68680;SDS011;55836;49.858;6.756;2023-03-04T08:07:27;104.17;;;40.93;;
68680;SDS011;55836;49.858;6.756;2023-03-04T08:09:53;95.87;;;37.07;;
68680;SDS011;55836;49.858;6.756;2023-03-04T08:12:19;95.87;;;38.23;;
68680;SDS011;55836;49.858;6.756;2023-03-04T08:14:45;94.83;;;39.10;;
68680;SDS011;55836;49.858;6.756;2023-03-04T08:17:11;95.17;;;40.37;;
68680;SDS011;55836;49.858;6.756;2023-03-04T08:19:38;105.50;;;42.87;;
68680;SDS011;55836;49.858;6.756;2023-03-04T08:22:04;110.03;;;43.97;;
68680;SDS011;55836;49.858;6.756;2023-03-04T08:24:31;103.40;;;41.77;;
68680;SDS011;55836;49.858;6.756;2023-03-04T08:26:57;95.03;;;38.60;;
68680;SDS011;55836;49.858;6.756;2023-03-04T08:29:23;103.93;;;41.80;;
68680;SDS011;55836;49.858;6.756;2023-03-04T08:31:50;99.80;;;38.23;;
68680;SDS011;55836;49.858;6.756;2023-03-04T08:34:17;101.80;;;37.60;;
68680;SDS011;55836;49.858;6.756;2023-03-04T08:36:43;93.40;;;37.30;;
68680;SDS011;55836;49.858;6.756;2023-03-04T08:39:13;104.47;;;40.00;;
68680;SDS011;55836;49.858;6.756;2023-03-04T08:41:39;96.50;;;40.13;;
68680;SDS011;55836;49.858;6.756;2023-03-04T08:44:05;102.43;;;38.67;;
68680;SDS011;55836;49.858;6.756;2023-03-04T08:46:34;97.17;;;37.73;;
68680;SDS011;55836;49.858;6.756;2023-03-04T08:49:00;95.70;;;37.30;;
68680;SDS011;55836;49.858;6.756;2023-03-04T08:51:26;98.57;;;41.77;;
68680;SDS011;55836;49.858;6.756;2023-03-04T08:53:52;93.53;;;38.60;;
68680;SDS011;55836;49.858;6.756;2023-03-04T08:56:18;96.80;;;40.80;;
68680;SDS011;55836;49.858;6.756;2023-03-04T08:58:45;102.87;;;40.40;;
68680;SDS011;55836;49.858;6.756;2023-03-04T09:01:11;96.43;;;39.80;;
68680;SDS011;55836;49.858;6.756;2023-03-04T09:03:38;89.90;;;37.60;;
68680;SDS011;55836;49.858;6.756;2023-03-04T09:06:05;93.30;;;38.13;;
68680;SDS011;55836;49.858;6.756;2023-03-04T09:08:31;104.77;;;38.60;;
68680;SDS011;55836;49.858;6.756;2023-03-04T09:10:58;94.40;;;39.63;;
68680;SDS011;55836;49.858;6.756;2023-03-04T09:13:24;87.87;;;36.53;;
68680;SDS011;55836;49.858;6.756;2023-03-04T09:15:51;88.37;;;37.33;;
68680;SDS011;55836;49.858;6.756;2023-03-04T09:18:18;96.07;;;37.90;;
68680;SDS011;55836;49.858;6.756;2023-03-04T09:20:45;94.13;;;37.67;;
68680;SDS011;55836;49.858;6.756;2023-03-04T09:23:11;92.00;;;39.00;;
68680;SDS011;55836;49.858;6.756;2023-03-04T09:25:37;96.30;;;38.13;;
68680;SDS011;55836;49.858;6.756;2023-03-04T09:28:03;90.40;;;40.30;;
68680;SDS011;55836;49.858;6.756;2023-03-04T09:30:30;84.37;;;36.73;;
68680;SDS011;55836;49.858;6.756;2023-03-04T09:32:56;99.33;;;39.37;;
68680;SDS011;55836;49.858;6.756;2023-03-04T09:35:22;80.37;;;34.93;;
68680;SDS011;55836;49.858;6.756;2023-03-04T09:37:48;86.27;;;36.80;;
68680;SDS011;55836;49.858;6.756;2023-03-04T09:40:15;91.07;;;37.80;;
68680;SDS011;55836;49.858;6.756;2023-03-04T09:45:39;89.27;;;36.40;;
68680;SDS011;55836;49.858;6.756;2023-03-04T09:48:06;94.70;;;37.00;;
68680;SDS011;55836;49.858;6.756;2023-03-04T09:50:36;89.40;;;37.03;;
68680;SDS011;55836;49.858;6.756;2023-03-04T10:00:43;88.77;;;38.57;;
68680;SDS011;55836;49.858;6.756;2023-03-04T10:03:11;87.27;;;39.47;;
68680;SDS011;55836;49.858;6.756;2023-03-04T10:05:44;90.17;;;37.87;;
68680;SDS011;55836;49.858;6.756;2023-03-04T10:08:55;86.07;;;38.90;;
68680;SDS011;55836;49.858;6.756;2023-03-04T10:11:00;94.20;;;35.30;;
68680;SDS011;55836;49.858;6.756;2023-03-04T10:13:30;87.40;;;37.50;;
68680;SDS011;55836;49.858;6.756;2023-03-04T10:16:00;75.20;;;32.53;;
68680;SDS011;55836;49.858;6.756;2023-03-04T10:18:33;67.83;;;31.67;;
68680;SDS011;55836;49.858;6.756;2023-03-04T10:21:03;76.60;;;33.57;;
68680;SDS011;55836;49.858;6.756;2023-03-04T10:23:32;68.67;;;29.63;;
68680;SDS011;55836;49.858;6.756;2023-03-04T10:25:59;74.47;;;31.53;;
68680;SDS011;55836;49.858;6.756;2023-03-04T10:28:27;61.70;;;25.90;;
68680;SDS011;55836;49.858;6.756;2023-03-04T10:33:21;57.97;;;26.53;;
68680;SDS011;55836;49.858;6.756;2023-03-04T10:35:48;58.73;;;27.30;;
68680;SDS011;55836;49.858;6.756;2023-03-04T10:38:17;61.03;;;27.20;;
68680;SDS011;55836;49.858;6.756;2023-03-04T10:40:44;62.87;;;27.30;;
68680;SDS011;55836;49.858;6.756;2023-03-04T10:43:17;64.70;;;25.43;;
68680;SDS011;55836;49.858;6.756;2023-03-04T10:45:44;96.60;;;40.43;;
68680;SDS011;55836;49.858;6.756;2023-03-04T10:48:18;84.77;;;35.03;;
68680;SDS011;55836;49.858;6.756;2023-03-04T10:50:45;63.33;;;29.67;;
68680;SDS011;55836;49.858;6.756;2023-03-04T10:53:24;64.47;;;28.20;;
68680;SDS011;55836;49.858;6.756;2023-03-04T10:55:53;60.47;;;26.40;;
68680;SDS011;55836;49.858;6.756;2023-03-04T10:58:19;46.03;;;22.30;;
68680;SDS011;55836;49.858;6.756;2023-03-04T11:00:49;49.33;;;21.03;;
68680;SDS011;55836;49.858;6.756;2023-03-04T11:06:06;50.23;;;22.07;;
68680;SDS011;55836;49.858;6.756;2023-03-04T11:08:32;49.83;;;21.77;;
68680;SDS011;55836;49.858;6.756;2023-03-04T11:10:58;48.93;;;21.87;;
68680;SDS011;55836;49.858;6.756;2023-03-04T11:13:25;44.70;;;19.37;;
68680;SDS011;55836;49.858;6.756;2023-03-04T11:21:02;46.67;;;21.67;;
68680;SDS011;55836;49.858;6.756;2023-03-04T11:23:31;41.20;;;18.00;;
68680;SDS011;55836;49.858;6.756;2023-03-04T11:26:00;43.17;;;19.07;;
68680;SDS011;55836;49.858;6.756;2023-03-04T11:28:41;32.83;;;16.60;;
68680;SDS011;55836;49.858;6.756;2023-03-04T11:31:13;36.63;;;16.80;;
68680;SDS011;55836;49.858;6.756;2023-03-04T11:39:13;31.23;;;13.33;;
68680;SDS011;55836;49.858;6.756;2023-03-04T11:41:44;33.00;;;14.00;;
68680;SDS011;55836;49.858;6.756;2023-03-04T11:44:14;36.17;;;16.17;;
68680;SDS011;55836;49.858;6.756;2023-03-04T11:46:47;30.07;;;15.67;;
68680;SDS011;55836;49.858;6.756;2023-03-04T11:59:27;15.27;;;6.77;;
68680;SDS011;55836;49.858;6.756;2023-03-04T12:01:56;11.43;;;4.77;;
68680;SDS011;55836;49.858;6.756;2023-03-04T12:20:15;15.27;;;7.17;;
68680;SDS011;55836;49.858;6.756;2023-03-04T12:23:31;18.70;;;8.67;;
68680;SDS011;55836;49.858;6.756;2023-03-04T12:25:35;17.20;;;7.10;;
68680;SDS011;55836;49.858;6.756;2023-03-04T12:28:08;17.57;;;7.23;;
68680;SDS011;55836;49.858;6.756;2023-03-04T12:33:11;14.30;;;6.10;;
68680;SDS011;55836;49.858;6.756;2023-03-04T12:35:44;9.20;;;3.90;;
68680;SDS011;55836;49.858;6.756;2023-03-04T12:46:30;16.83;;;3.90;;
68680;SDS011;55836;49.858;6.756;2023-03-04T12:59:09;4.97;;;2.40;;
68680;SDS011;55836;49.858;6.756;2023-03-04T13:01:40;6.17;;;2.33;;
68680;SDS011;55836;49.858;6.756;2023-03-04T13:06:45;5.23;;;2.23;;
68680;SDS011;55836;49.858;6.756;2023-03-04T13:16:44;3.80;;;2.50;;
68680;SDS011;55836;49.858;6.756;2023-03-04T13:21:55;6.00;;;3.23;;
68680;SDS011;55836;49.858;6.756;2023-03-04T13:24:42;7.07;;;3.20;;
68680;SDS011;55836;49.858;6.756;2023-03-04T13:29:53;6.70;;;4.20;;
68680;SDS011;55836;49.858;6.756;2023-03-04T13:32:35;7.80;;;3.17;;
68680;SDS011;55836;49.858;6.756;2023-03-04T13:35:22;8.33;;;3.60;;
68680;SDS011;55836;49.858;6.756;2023-03-04T13:37:57;5.93;;;3.27;;
68680;SDS011;55836;49.858;6.756;2023-03-04T13:42:56;7.03;;;2.90;;
68680;SDS011;55836;49.858;6.756;2023-03-04T13:45:42;7.40;;;3.47;;
68680;SDS011;55836;49.858;6.756;2023-03-04T13:48:20;6.00;;;3.20;;
68680;SDS011;55836;49.858;6.756;2023-03-04T13:50:48;7.07;;;3.30;;
68680;SDS011;55836;49.858;6.756;2023-03-04T13:53:57;7.60;;;3.83;;
68680;SDS011;55836;49.858;6.756;2023-03-04T13:56:17;6.83;;;4.27;;
68680;SDS011;55836;49.858;6.756;2023-03-04T13:58:44;7.13;;;4.30;;
68680;SDS011;55836;49.858;6.756;2023-03-04T14:01:21;9.23;;;5.17;;
68680;SDS011;55836;49.858;6.756;2023-03-04T14:03:48;9.87;;;5.47;;
68680;SDS011;55836;49.858;6.756;2023-03-04T14:06:24;8.00;;;5.27;;
68680;SDS011;55836;49.858;6.756;2023-03-04T14:08:51;7.73;;;5.83;;
68680;SDS011;55836;49.858;6.756;2023-03-04T14:11:21;10.63;;;6.50;;
68680;SDS011;55836;49.858;6.756;2023-03-04T14:13:49;12.97;;;6.40;;
68680;SDS011;55836;49.858;6.756;2023-03-04T14:16:19;12.27;;;7.00;;
68680;SDS011;55836;49.858;6.756;2023-03-04T14:18:45;12.70;;;8.60;;
68680;SDS011;55836;49.858;6.756;2023-03-04T14:21:13;11.60;;;7.13;;
68680;SDS011;55836;49.858;6.756;2023-03-04T14:23:39;12.50;;;7.30;;
68680;SDS011;55836;49.858;6.756;2023-03-04T14:26:14;10.67;;;7.17;;
68680;SDS011;55836;49.858;6.756;2023-03-04T14:28:43;12.00;;;8.13;;
68680;SDS011;55836;49.858;6.756;2023-03-04T14:31:13;11.33;;;7.63;;
68680;SDS011;55836;49.858;6.756;2023-03-04T14:33:42;12.87;;;7.77;;
68680;SDS011;55836;49.858;6.756;2023-03-04T14:36:12;13.83;;;8.07;;
68680;SDS011;55836;49.858;6.756;2023-03-04T14:38:39;12.87;;;7.97;;
68680;SDS011;55836;49.858;6.756;2023-03-04T14:43:35;11.83;;;8.43;;
68680;SDS011;55836;49.858;6.756;2023-03-04T14:46:05;13.20;;;7.93;;
68680;SDS011;55836;49.858;6.756;2023-03-04T14:48:33;13.50;;;7.83;;
68680;SDS011;55836;49.858;6.756;2023-03-04T14:51:00;11.07;;;7.53;;
68680;SDS011;55836;49.858;6.756;2023-03-04T14:53:27;15.03;;;8.00;;
68680;SDS011;55836;49.858;6.756;2023-03-04T14:55:54;10.47;;;7.17;;
68680;SDS011;55836;49.858;6.756;2023-03-04T14:58:22;10.17;;;6.73;;
68680;SDS011;55836;49.858;6.756;2023-03-04T15:00:48;10.77;;;6.43;;
68680;SDS011;55836;49.858;6.756;2023-03-04T15:03:27;9.83;;;6.90;;
68680;SDS011;55836;49.858;6.756;2023-03-04T15:05:54;9.03;;;5.97;;
68680;SDS011;55836;49.858;6.756;2023-03-04T15:08:30;9.67;;;6.70;;
68680;SDS011;55836;49.858;6.756;2023-03-04T15:10:59;14.43;;;7.90;;
68680;SDS011;55836;49.858;6.756;2023-03-04T15:13:36;10.57;;;5.97;;
68680;SDS011;55836;49.858;6.756;2023-03-04T15:16:03;10.43;;;6.90;;
68680;SDS011;55836;49.858;6.756;2023-03-04T15:18:29;10.60;;;6.47;;
68680;SDS011;55836;49.858;6.756;2023-03-04T15:20:57;8.57;;;6.07;;
68680;SDS011;55836;49.858;6.756;2023-03-04T15:23:24;9.17;;;5.43;;
68680;SDS011;55836;49.858;6.756;2023-03-04T15:25:53;9.23;;;5.80;;
68680;SDS011;55836;49.858;6.756;2023-03-04T15:28:20;8.03;;;5.27;;
68680;SDS011;55836;49.858;6.756;2023-03-04T15:30:47;6.33;;;4.27;;
68680;SDS011;55836;49.858;6.756;2023-03-04T15:33:13;6.87;;;4.47;;
68680;SDS011;55836;49.858;6.756;2023-03-04T15:35:39;9.30;;;4.10;;
68680;SDS011;55836;49.858;6.756;2023-03-04T15:38:06;5.70;;;4.00;;
68680;SDS011;55836;49.858;6.756;2023-03-04T15:40:34;9.10;;;4.97;;
68680;SDS011;55836;49.858;6.756;2023-03-04T15:43:03;7.13;;;4.10;;
68680;SDS011;55836;49.858;6.756;2023-03-04T15:45:30;6.37;;;4.07;;
68680;SDS011;55836;49.858;6.756;2023-03-04T15:47:59;6.87;;;3.97;;
68680;SDS011;55836;49.858;6.756;2023-03-04T15:50:28;8.17;;;4.50;;
68680;SDS011;55836;49.858;6.756;2023-03-04T15:52:58;8.30;;;5.23;;
68680;SDS011;55836;49.858;6.756;2023-03-04T15:55:26;9.40;;;5.70;;
68680;SDS011;55836;49.858;6.756;2023-03-04T15:57:53;11.37;;;6.33;;
68680;SDS011;55836;49.858;6.756;2023-03-04T16:00:20;10.83;;;6.23;;
68680;SDS011;55836;49.858;6.756;2023-03-04T16:02:46;10.07;;;6.23;;